sensor_id;sensor_type;location;lat;lon;timestamp;pressure;altitude;pressure_sealevel;temperature;humidity
48386;BME280;34644;47.964;7.982;2023-03-25T00:04:17;96201.41;;;17.43;62.66
48386;BME280;34644;47.964;7.982;2023-03-25T00:11:18;96206.75;;;17.43;62.65
48386;BME280;34644;47.964;7.982;2023-03-25T00:18:19;96196.09;;;17.43;62.66
48386;BME280;34644;47.964;7.982;2023-03-25T00:25:19;96191.81;;;17.42;62.70
48386;BME280;34644;47.964;7.982;2023-03-25T00:32:20;96173.19;;;17.42;62.62
48386;BME280;34644;47.964;7.982;2023-03-25T00:39:21;96167.06;;;17.41;62.66
48386;BME280;34644;47.964;7.982;2023-03-25T00:46:22;96147.31;;;17.42;62.83
48386;BME280;34644;47.964;7.982;2023-03-25T00:53:23;96142.00;;;17.42;62.86
48386;BME280;34644;47.964;7.982;2023-03-25T01:00:23;96154.53;;;17.42;62.85
48386;BME280;34644;47.964;7.982;2023-03-25T01:07:23;96156.41;;;17.41;62.88
48386;BME280;34644;47.964;7.982;2023-03-25T01:14:24;96159.06;;;17.41;62.84
48386;BME280;34644;47.964;7.982;2023-03-25T01:21:26;96182.25;;;17.41;62.97
48386;BME280;34644;47.964;7.982;2023-03-25T01:28:27;96170.31;;;17.38;62.95
48386;BME280;34644;47.964;7.982;2023-03-25T01:35:27;96182.81;;;17.38;62.79
48386;BME280;34644;47.964;7.982;2023-03-25T01:42:27;96169.00;;;17.35;62.67
48386;BME280;34644;47.964;7.982;2023-03-25T01:49:37;96179.66;;;17.35;62.52
48386;BME280;34644;47.964;7.982;2023-03-25T01:56:43;96156.75;;;17.34;62.45
48386;BME280;34644;47.964;7.982;2023-03-25T02:03:46;96150.63;;;17.34;62.50
48386;BME280;34644;47.964;7.982;2023-03-25T02:10:49;96149.84;;;17.33;62.29
48386;BME280;34644;47.964;7.982;2023-03-25T02:18:03;96230.25;;;17.35;62.51
48386;BME280;34644;47.964;7.982;2023-03-25T02:46:23;96225.00;;;17.30;62.33
48386;BME280;34644;47.964;7.982;2023-03-25T02:53:26;96215.41;;;17.29;62.22
48386;BME280;34644;47.964;7.982;2023-03-25T03:00:28;96211.16;;;17.28;62.13
48386;BME280;34644;47.964;7.982;2023-03-25T03:07:33;96211.16;;;17.28;62.13
48386;BME280;34644;47.964;7.982;2023-03-25T03:28:47;96239.66;;;17.28;61.99
48386;BME280;34644;47.964;7.982;2023-03-25T03:36:11;96243.44;;;17.27;62.07
48386;BME280;34644;47.964;7.982;2023-03-25T03:43:15;96238.38;;;17.25;61.98
48386;BME280;34644;47.964;7.982;2023-03-25T03:50:18;96252.00;;;17.24;61.94
48386;BME280;34644;47.964;7.982;2023-03-25T03:57:21;96258.09;;;17.24;61.93
48386;BME280;34644;47.964;7.982;2023-03-25T04:04:24;96240.53;;;17.23;61.94
48386;BME280;34644;47.964;7.982;2023-03-25T04:11:32;96238.16;;;17.22;61.83
48386;BME280;34644;47.964;7.982;2023-03-25T04:18:34;96241.91;;;17.21;61.88
48386;BME280;34644;47.964;7.982;2023-03-25T04:25:35;96247.22;;;17.21;61.77
48386;BME280;34644;47.964;7.982;2023-03-25T04:32:35;96240.31;;;17.20;61.82
48386;BME280;34644;47.964;7.982;2023-03-25T04:39:35;96238.72;;;17.18;61.63
48386;BME280;34644;47.964;7.982;2023-03-25T04:46:36;96246.41;;;17.20;61.65
48386;BME280;34644;47.964;7.982;2023-03-25T04:53:37;96246.69;;;17.18;61.71
48386;BME280;34644;47.964;7.982;2023-03-25T05:00:37;96262.69;;;17.18;61.70
48386;BME280;34644;47.964;7.982;2023-03-25T05:07:38;96281.59;;;17.17;61.62
48386;BME280;34644;47.964;7.982;2023-03-25T05:14:38;96270.94;;;17.17;61.55
48386;BME280;34644;47.964;7.982;2023-03-25T05:21:38;96295.72;;;17.17;61.69
48386;BME280;34644;47.964;7.982;2023-03-25T05:28:40;96285.84;;;17.18;61.57
48386;BME280;34644;47.964;7.982;2023-03-25T05:35:41;96280.81;;;17.16;61.50
48386;BME280;34644;47.964;7.982;2023-03-25T05:42:42;96287.50;;;17.14;61.50
48386;BME280;34644;47.964;7.982;2023-03-25T05:49:51;96271.22;;;17.15;61.56
48386;BME280;34644;47.964;7.982;2023-03-25T05:56:52;96276.84;;;17.14;61.57
48386;BME280;34644;47.964;7.982;2023-03-25T06:03:53;96255.53;;;17.14;61.54
48386;BME280;34644;47.964;7.982;2023-03-25T06:10:56;96252.88;;;17.14;61.50
48386;BME280;34644;47.964;7.982;2023-03-25T06:17:59;96249.16;;;17.15;61.65
48386;BME280;34644;47.964;7.982;2023-03-25T06:25:00;96260.09;;;17.13;61.79
48386;BME280;34644;47.964;7.982;2023-03-25T06:32:00;96267.28;;;17.13;61.64
48386;BME280;34644;47.964;7.982;2023-03-25T06:39:01;96254.53;;;17.10;61.50
48386;BME280;34644;47.964;7.982;2023-03-25T06:46:02;96242.00;;;17.10;61.41
48386;BME280;34644;47.964;7.982;2023-03-25T06:53:25;96239.84;;;17.12;61.32
48386;BME280;34644;47.964;7.982;2023-03-25T07:00:26;96238.28;;;17.11;61.29
48386;BME280;34644;47.964;7.982;2023-03-25T07:07:27;96235.34;;;17.13;61.21
48386;BME280;34644;47.964;7.982;2023-03-25T07:14:27;96236.91;;;17.14;60.99
48386;BME280;34644;47.964;7.982;2023-03-25T07:21:28;96233.66;;;17.17;61.31
48386;BME280;34644;47.964;7.982;2023-03-25T07:28:28;96230.69;;;17.24;61.70
48386;BME280;34644;47.964;7.982;2023-03-25T07:35:28;96228.72;;;17.29;61.74
48386;BME280;34644;47.964;7.982;2023-03-25T07:42:29;96225.84;;;17.26;62.01
48386;BME280;34644;47.964;7.982;2023-03-25T07:49:48;96249.63;;;17.22;62.13
48386;BME280;34644;47.964;7.982;2023-03-25T07:56:49;96240.03;;;17.21;61.88
48386;BME280;34644;47.964;7.982;2023-03-25T08:03:51;96245.84;;;17.23;61.64
48386;BME280;34644;47.964;7.982;2023-03-25T08:10:52;96237.78;;;17.28;61.51
48386;BME280;34644;47.964;7.982;2023-03-25T08:17:52;96248.34;;;17.39;61.65
48386;BME280;34644;47.964;7.982;2023-03-25T08:24:53;96260.75;;;16.07;52.73
48386;BME280;34644;47.964;7.982;2023-03-25T08:31:53;96253.78;;;17.04;56.79
48386;BME280;34644;47.964;7.982;2023-03-25T08:38:53;96276.25;;;17.22;58.05
48386;BME280;34644;47.964;7.982;2023-03-25T08:45:54;96271.56;;;17.33;58.56
48386;BME280;34644;47.964;7.982;2023-03-25T08:52:55;96280.88;;;17.35;59.10
48386;BME280;34644;47.964;7.982;2023-03-25T08:59:57;96276.03;;;17.38;59.50
48386;BME280;34644;47.964;7.982;2023-03-25T09:06:57;96273.84;;;17.45;59.60
48386;BME280;34644;47.964;7.982;2023-03-25T09:13:57;96278.34;;;17.68;59.46
48386;BME280;34644;47.964;7.982;2023-03-25T09:20:58;96277.13;;;17.80;59.46
48386;BME280;34644;47.964;7.982;2023-03-25T09:27:59;96271.97;;;17.88;59.46
48386;BME280;34644;47.964;7.982;2023-03-25T09:34:59;96274.84;;;17.92;59.42
48386;BME280;34644;47.964;7.982;2023-03-25T09:49:21;96300.03;;;17.81;59.58
48386;BME280;34644;47.964;7.982;2023-03-25T09:56:23;96311.09;;;17.69;59.68
48386;BME280;34644;47.964;7.982;2023-03-25T10:03:36;96322.06;;;17.86;59.38
48386;BME280;34644;47.964;7.982;2023-03-25T10:18:03;96335.97;;;18.26;58.64
48386;BME280;34644;47.964;7.982;2023-03-25T10:25:09;96345.75;;;18.50;58.04
48386;BME280;34644;47.964;7.982;2023-03-25T10:32:16;96347.09;;;18.48;58.22
48386;BME280;34644;47.964;7.982;2023-03-25T10:39:18;96360.38;;;18.53;58.12
48386;BME280;34644;47.964;7.982;2023-03-25T10:46:30;96350.34;;;18.44;58.53
48386;BME280;34644;47.964;7.982;2023-03-25T10:53:31;96333.69;;;18.53;58.40
48386;BME280;34644;47.964;7.982;2023-03-25T11:00:32;96333.28;;;18.46;58.67
48386;BME280;34644;47.964;7.982;2023-03-25T11:14:37;96338.91;;;18.25;59.62
48386;BME280;34644;47.964;7.982;2023-03-25T11:21:38;96334.50;;;18.15;59.93
48386;BME280;34644;47.964;7.982;2023-03-25T11:28:49;96339.78;;;18.39;59.07
48386;BME280;34644;47.964;7.982;2023-03-25T11:35:51;96329.22;;;18.48;59.15
48386;BME280;34644;47.964;7.982;2023-03-25T11:42:52;96330.72;;;18.54;58.76
48386;BME280;34644;47.964;7.982;2023-03-25T11:49:53;96337.44;;;18.52;59.03
48386;BME280;34644;47.964;7.982;2023-03-25T11:56:54;96348.84;;;18.38;59.61
48386;BME280;34644;47.964;7.982;2023-03-25T12:04:06;96329.16;;;18.34;59.45
48386;BME280;34644;47.964;7.982;2023-03-25T12:11:25;96330.81;;;18.30;59.61
48386;BME280;34644;47.964;7.982;2023-03-25T12:25:43;96328.81;;;18.41;59.45
48386;BME280;34644;47.964;7.982;2023-03-25T13:08:37;96291.00;;;18.34;59.46
48386;BME280;34644;47.964;7.982;2023-03-25T13:22:57;96286.94;;;18.22;59.68
48386;BME280;34644;47.964;7.982;2023-03-25T13:29:58;96305.44;;;18.14;59.85
48386;BME280;34644;47.964;7.982;2023-03-25T13:37:11;96308.56;;;18.02;58.57
48386;BME280;34644;47.964;7.982;2023-03-25T13:44:18;96281.78;;;18.26;58.67
48386;BME280;34644;47.964;7.982;2023-03-25T13:51:19;96327.59;;;18.14;59.30
48386;BME280;34644;47.964;7.982;2023-03-25T13:58:36;96320.66;;;18.13;59.36
48386;BME280;34644;47.964;7.982;2023-03-25T14:12:46;96335.72;;;18.23;58.96
48386;BME280;34644;47.964;7.982;2023-03-25T14:19:50;96326.44;;;18.20;59.03
48386;BME280;34644;47.964;7.982;2023-03-25T14:27:39;96323.03;;;18.15;59.11
48386;BME280;34644;47.964;7.982;2023-03-25T14:34:21;96328.81;;;18.22;58.90
48386;BME280;34644;47.964;7.982;2023-03-25T14:48:42;96336.47;;;18.10;59.43
48386;BME280;34644;47.964;7.982;2023-03-25T14:55:46;96316.72;;;18.11;59.23
48386;BME280;34644;47.964;7.982;2023-03-25T15:02:52;96318.78;;;18.14;59.06
48386;BME280;34644;47.964;7.982;2023-03-25T15:09:57;96311.16;;;18.07;59.28
48386;BME280;34644;47.964;7.982;2023-03-25T15:16:59;96310.94;;;18.03;59.40
48386;BME280;34644;47.964;7.982;2023-03-25T15:45:20;96256.69;;;17.94;58.13
48386;BME280;34644;47.964;7.982;2023-03-25T16:06:25;96265.53;;;15.60;48.55
48386;BME280;34644;47.964;7.982;2023-03-25T16:13:27;96273.38;;;15.26;48.36
48386;BME280;34644;47.964;7.982;2023-03-25T16:20:27;96254.31;;;16.48;48.03
48386;BME280;34644;47.964;7.982;2023-03-25T16:27:41;96267.69;;;16.72;49.49
48386;BME280;34644;47.964;7.982;2023-03-25T16:34:43;96289.63;;;16.88;50.94
48386;BME280;34644;47.964;7.982;2023-03-25T16:41:45;96290.09;;;16.95;51.98
48386;BME280;34644;47.964;7.982;2023-03-25T16:48:46;96277.81;;;16.99;52.69
48386;BME280;34644;47.964;7.982;2023-03-25T16:55:49;96280.19;;;17.00;53.13
48386;BME280;34644;47.964;7.982;2023-03-25T17:02:50;96282.56;;;17.02;53.57
48386;BME280;34644;47.964;7.982;2023-03-25T17:09:51;96278.03;;;17.03;53.99
48386;BME280;34644;47.964;7.982;2023-03-25T17:16:52;96263.66;;;17.04;54.28
48386;BME280;34644;47.964;7.982;2023-03-25T17:23:54;96269.47;;;17.06;54.59
48386;BME280;34644;47.964;7.982;2023-03-25T17:30:54;96274.03;;;17.05;54.79
48386;BME280;34644;47.964;7.982;2023-03-25T17:37:55;96272.94;;;17.06;55.06
48386;BME280;34644;47.964;7.982;2023-03-25T17:44:55;96289.72;;;17.07;55.36
48386;BME280;34644;47.964;7.982;2023-03-25T17:51:55;96290.50;;;17.07;55.47
48386;BME280;34644;47.964;7.982;2023-03-25T17:58:58;96289.72;;;17.07;55.69
48386;BME280;34644;47.964;7.982;2023-03-25T18:05:59;96296.59;;;17.08;55.80
48386;BME280;34644;47.964;7.982;2023-03-25T18:13:00;96308.56;;;16.81;53.78
48386;BME280;34644;47.964;7.982;2023-03-25T18:20:04;96304.72;;;16.97;54.99
48386;BME280;34644;47.964;7.982;2023-03-25T18:27:10;96304.16;;;17.00;55.14
48386;BME280;34644;47.964;7.982;2023-03-25T18:34:13;96305.75;;;17.02;55.43
48386;BME280;34644;47.964;7.982;2023-03-25T18:41:13;96307.59;;;17.01;55.66
48386;BME280;34644;47.964;7.982;2023-03-25T18:48:16;96306.81;;;17.00;55.80
48386;BME280;34644;47.964;7.982;2023-03-25T18:55:19;96309.19;;;17.02;55.94
48386;BME280;34644;47.964;7.982;2023-03-25T19:02:20;96313.72;;;17.02;56.12
48386;BME280;34644;47.964;7.982;2023-03-25T19:09:20;96306.81;;;17.00;56.24
48386;BME280;34644;47.964;7.982;2023-03-25T19:16:22;96322.00;;;17.00;56.31
48386;BME280;34644;47.964;7.982;2023-03-25T19:23:22;96320.41;;;16.99;56.42
48386;BME280;34644;47.964;7.982;2023-03-25T19:30:23;96337.16;;;16.99;56.53
48386;BME280;34644;47.964;7.982;2023-03-25T19:37:24;96332.13;;;16.98;56.63
48386;BME280;34644;47.964;7.982;2023-03-25T19:44:30;96328.66;;;16.97;56.59
48386;BME280;34644;47.964;7.982;2023-03-25T19:51:30;96321.75;;;16.96;56.52
48386;BME280;34644;47.964;7.982;2023-03-25T19:58:30;96304.22;;;16.95;56.81
48386;BME280;34644;47.964;7.982;2023-03-25T20:05:31;96303.41;;;16.95;56.85
48386;BME280;34644;47.964;7.982;2023-03-25T20:12:31;96315.94;;;16.94;56.92
48386;BME280;34644;47.964;7.982;2023-03-25T20:19:32;96317.00;;;16.93;56.96
48386;BME280;34644;47.964;7.982;2023-03-25T20:26:32;96322.31;;;16.93;56.97
48386;BME280;34644;47.964;7.982;2023-03-25T20:33:33;96303.69;;;16.93;56.94
48386;BME280;34644;47.964;7.982;2023-03-25T20:40:33;96315.69;;;16.91;57.11
48386;BME280;34644;47.964;7.982;2023-03-25T20:47:33;96313.81;;;16.91;57.09
48386;BME280;34644;47.964;7.982;2023-03-25T20:54:34;96318.34;;;16.91;57.03
48386;BME280;34644;47.964;7.982;2023-03-25T21:01:34;96303.72;;;16.88;57.13
48386;BME280;34644;47.964;7.982;2023-03-25T21:08:36;96304.53;;;16.89;57.23
48386;BME280;34644;47.964;7.982;2023-03-25T21:15:36;96297.63;;;16.88;57.15
48386;BME280;34644;47.964;7.982;2023-03-25T21:22:40;96291.50;;;16.87;57.25
48386;BME280;34644;47.964;7.982;2023-03-25T21:29:44;96292.59;;;16.86;57.25
48386;BME280;34644;47.964;7.982;2023-03-25T21:36:47;96305.91;;;16.86;57.24
48386;BME280;34644;47.964;7.982;2023-03-25T21:43:48;96305.06;;;16.86;57.38
48386;BME280;34644;47.964;7.982;2023-03-25T21:50:49;96314.13;;;16.85;57.40
48386;BME280;34644;47.964;7.982;2023-03-25T21:57:55;96301.88;;;16.83;57.32
48386;BME280;34644;47.964;7.982;2023-03-25T22:04:55;96289.38;;;16.84;57.33
48386;BME280;34644;47.964;7.982;2023-03-25T22:11:56;96293.78;;;16.99;57.30
48386;BME280;34644;47.964;7.982;2023-03-25T22:18:56;96294.00;;;17.03;57.88
48386;BME280;34644;47.964;7.982;2023-03-25T22:25:56;96280.69;;;17.03;58.21
48386;BME280;34644;47.964;7.982;2023-03-25T22:32:56;96275.91;;;17.05;58.21
48386;BME280;34644;47.964;7.982;2023-03-25T22:39:57;96291.88;;;17.05;58.44
48386;BME280;34644;47.964;7.982;2023-03-25T22:46:57;96273.53;;;17.03;58.63
48386;BME280;34644;47.964;7.982;2023-03-25T22:53:58;96269.75;;;17.04;58.54
48386;BME280;34644;47.964;7.982;2023-03-25T23:00:59;96255.38;;;17.05;58.58
48386;BME280;34644;47.964;7.982;2023-03-25T23:08:00;96255.38;;;17.05;58.91
48386;BME280;34644;47.964;7.982;2023-03-25T23:15:00;96247.41;;;17.05;59.01
48386;BME280;34644;47.964;7.982;2023-03-25T23:22:00;96248.97;;;17.06;58.95
48386;BME280;34644;47.964;7.982;2023-03-25T23:29:01;96234.09;;;17.05;59.27
48386;BME280;34644;47.964;7.982;2023-03-25T23:36:03;96224.22;;;17.06;59.03
48386;BME280;34644;47.964;7.982;2023-03-25T23:43:04;96218.91;;;17.06;59.54
48386;BME280;34644;47.964;7.982;2023-03-25T23:50:05;96222.34;;;17.06;59.43
48386;BME280;34644;47.964;7.982;2023-03-25T23:57:05;96212.50;;;17.07;59.53
